createdAt,value
2023-03-26T00:04:29.404Z,1013.55
2023-03-26T00:09:36.694Z,1013.40
2023-03-26T00:14:43.887Z,1013.22
2023-03-26T00:19:51.240Z,1013.24
2023-03-26T00:24:58.485Z,1013.18
2023-03-26T00:30:05.745Z,1013.23
2023-03-26T00:35:13.029Z,1013.18
2023-03-26T00:40:20.242Z,1013.14
2023-03-26T00:45:27.400Z,1013.07
2023-03-26T00:50:34.664Z,1013.07
2023-03-26T00:55:41.878Z,1012.97
2023-03-26T01:00:49.056Z,1013.00
2023-03-26T01:05:56.441Z,1013.04
2023-03-26T01:11:03.560Z,1012.97
2023-03-26T01:16:45.996Z,1012.90
2023-03-26T01:22:21.046Z,1012.92
2023-03-26T01:27:47.480Z,1012.85
2023-03-26T01:33:30.518Z,1012.85
2023-03-26T01:39:20.229Z,1012.75
2023-03-26T01:45:02.516Z,1012.75
2023-03-26T01:51:05.226Z,1012.74
2023-03-26T01:55:32.987Z,1012.73
2023-03-26T02:01:15.761Z,1012.62
2023-03-26T02:07:03.696Z,1012.60
2023-03-26T02:12:17.425Z,1012.41
2023-03-26T02:17:25.205Z,1012.27
2023-03-26T02:28:33.505Z,1011.91
2023-03-26T02:38:22.197Z,1011.78
2023-03-26T02:43:42.994Z,1011.54
2023-03-26T02:48:51.114Z,1011.32
2023-03-26T02:53:44.213Z,1011.76
2023-03-26T02:53:58.933Z,1011.25
2023-03-26T02:59:16.177Z,1011.16
2023-03-26T03:05:07.567Z,1011.13
2023-03-26T03:09:35.004Z,1010.99
2023-03-26T03:14:42.405Z,1011.05
2023-03-26T03:19:49.714Z,1010.85
2023-03-26T03:25:00.099Z,1010.82
2023-03-26T03:30:07.395Z,1010.82
2023-03-26T03:35:14.725Z,1010.75
2023-03-26T03:40:22.025Z,1010.46
2023-03-26T03:45:29.260Z,1010.42
2023-03-26T03:50:36.706Z,1010.34
2023-03-26T03:55:43.966Z,1010.33
2023-03-26T04:00:51.331Z,1010.32
2023-03-26T04:05:58.580Z,1010.18
2023-03-26T04:11:05.888Z,1010.06
2023-03-26T04:16:13.105Z,1010.10
2023-03-26T04:21:20.275Z,1009.99
2023-03-26T04:26:27.592Z,1010.13
2023-03-26T04:31:34.880Z,1010.05
2023-03-26T04:36:41.987Z,1010.04
2023-03-26T04:41:49.571Z,1010.03
2023-03-26T04:46:56.821Z,1009.98
2023-03-26T04:52:03.947Z,1009.93
2023-03-26T04:57:11.218Z,1009.93
2023-03-26T05:02:18.455Z,1009.81
2023-03-26T05:07:25.711Z,1009.75
2023-03-26T05:12:32.924Z,1009.51
2023-03-26T05:17:40.130Z,1009.41
2023-03-26T05:22:47.371Z,1009.28
2023-03-26T05:27:54.567Z,1009.09
2023-03-26T05:33:01.820Z,1008.80
2023-03-26T05:38:08.919Z,1008.58
2023-03-26T05:43:16.197Z,1008.46
2023-03-26T05:48:23.392Z,1008.25
2023-03-26T05:53:30.612Z,1008.08
2023-03-26T05:58:37.861Z,1007.87
2023-03-26T06:03:45.263Z,1007.92
2023-03-26T06:09:02.208Z,1007.72
2023-03-26T06:13:59.559Z,1007.93
2023-03-26T06:19:06.803Z,1007.88
2023-03-26T06:24:14.076Z,1007.93
2023-03-26T06:29:21.288Z,1007.90
2023-03-26T06:34:28.843Z,1008.03
2023-03-26T06:39:36.038Z,1008.20
2023-03-26T06:44:43.308Z,1008.21
2023-03-26T06:49:50.481Z,1008.24
2023-03-26T06:54:57.685Z,1008.17
2023-03-26T07:00:04.875Z,1007.67
2023-03-26T07:05:12.047Z,1007.40
2023-03-26T07:10:19.257Z,1007.36
2023-03-26T07:15:26.629Z,1007.22
2023-03-26T07:20:33.688Z,1007.25
2023-03-26T07:25:40.891Z,1007.09
2023-03-26T07:30:48.108Z,1007.15
2023-03-26T07:35:55.270Z,1007.24
2023-03-26T07:41:02.474Z,1007.61
2023-03-26T07:46:09.720Z,1007.68
2023-03-26T07:51:16.799Z,1007.71
2023-03-26T07:56:24.041Z,1007.79
2023-03-26T08:01:31.270Z,1007.87
2023-03-26T08:06:38.368Z,1008.10
2023-03-26T08:11:45.553Z,1008.06
2023-03-26T08:16:52.774Z,1008.03
2023-03-26T08:21:59.932Z,1007.95
2023-03-26T08:27:07.130Z,1007.86
2023-03-26T08:32:14.410Z,1007.67
2023-03-26T08:37:21.604Z,1007.70
2023-03-26T08:42:28.866Z,1007.71
2023-03-26T08:47:36.116Z,1007.80
2023-03-26T08:52:43.294Z,1007.58
2023-03-26T08:57:50.524Z,1007.57
2023-03-26T09:02:57.748Z,1007.66
2023-03-26T09:08:04.871Z,1007.75
2023-03-26T09:13:12.025Z,1007.60
2023-03-26T09:18:19.309Z,1007.27
2023-03-26T09:23:26.541Z,1007.06
2023-03-26T09:28:33.776Z,1006.94
2023-03-26T09:33:40.940Z,1006.96
2023-03-26T09:38:48.062Z,1006.94
2023-03-26T09:43:55.323Z,1007.27
2023-03-26T09:49:02.499Z,1007.28
2023-03-26T09:54:09.678Z,1007.11
2023-03-26T09:59:16.861Z,1006.84
2023-03-26T10:04:24.170Z,1006.67
2023-03-26T10:09:31.316Z,1006.88
2023-03-26T10:14:38.538Z,1006.75
2023-03-26T10:19:45.832Z,1006.87
2023-03-26T10:24:52.983Z,1007.17
2023-03-26T10:30:00.253Z,1007.19
2023-03-26T10:35:07.756Z,1007.48
2023-03-26T10:40:14.843Z,1007.54
2023-03-26T10:45:22.026Z,1007.58
2023-03-26T10:50:29.266Z,1007.56
2023-03-26T10:55:36.368Z,1007.49
2023-03-26T11:00:43.550Z,1007.53
2023-03-26T11:05:50.819Z,1007.39
2023-03-26T11:10:58.009Z,1007.45
2023-03-26T11:16:05.254Z,1007.44
2023-03-26T11:21:18.461Z,1007.73
2023-03-26T11:26:19.585Z,1007.51
2023-03-26T11:31:27.088Z,1007.17
2023-03-26T11:36:34.376Z,1007.10
2023-03-26T11:41:41.563Z,1006.90
2023-03-26T11:46:48.769Z,1006.88
2023-03-26T11:51:55.964Z,1006.46
2023-03-26T11:57:04.732Z,1006.64
2023-03-26T12:02:10.418Z,1006.68
2023-03-26T12:07:17.651Z,1006.39
2023-03-26T12:12:24.872Z,1006.44
2023-03-26T12:17:32.190Z,1006.42
2023-03-26T12:22:41.165Z,1006.31
2023-03-26T12:27:46.593Z,1006.16
2023-03-26T12:32:54.515Z,1006.11
2023-03-26T12:38:02.955Z,1006.06
2023-03-26T12:44:55.666Z,1006.00
2023-03-26T12:48:17.636Z,1005.94
2023-03-26T12:53:25.168Z,1005.89
2023-03-26T12:58:32.608Z,1005.79
2023-03-26T13:03:39.820Z,1005.81
2023-03-26T13:08:47.187Z,1005.66
2023-03-26T13:13:54.473Z,1005.55
2023-03-26T13:19:01.898Z,1005.62
2023-03-26T13:24:09.185Z,1005.44
2023-03-26T13:29:16.617Z,1005.36
2023-03-26T13:34:23.936Z,1005.30
2023-03-26T13:39:31.238Z,1005.18
2023-03-26T13:44:38.411Z,1005.20
2023-03-26T13:49:45.941Z,1005.09
2023-03-26T13:54:53.311Z,1005.05
2023-03-26T14:00:00.499Z,1004.91
2023-03-26T14:05:07.984Z,1004.94
2023-03-26T14:10:15.611Z,1004.85
2023-03-26T14:15:22.929Z,1004.73
2023-03-26T14:20:30.392Z,1004.61
2023-03-26T14:25:38.137Z,1004.37
2023-03-26T14:30:45.530Z,1004.30
2023-03-26T14:35:52.786Z,1004.30
2023-03-26T14:41:00.365Z,1004.32
2023-03-26T14:46:07.979Z,1004.43
2023-03-26T14:51:15.601Z,1004.47
2023-03-26T14:56:23.824Z,1004.47
2023-03-26T15:01:31.387Z,1004.47
2023-03-26T15:06:38.675Z,1004.27
2023-03-26T15:11:46.029Z,1004.41
2023-03-26T15:16:53.380Z,1004.38
2023-03-26T15:22:01.977Z,1004.43
2023-03-26T15:27:09.614Z,1004.41
2023-03-26T15:32:17.031Z,1004.66
2023-03-26T15:37:24.612Z,1005.20
2023-03-26T15:42:32.016Z,1005.92
2023-03-26T15:47:39.313Z,1006.15
2023-03-26T15:52:46.442Z,1006.04
2023-03-26T15:57:53.717Z,1005.88
2023-03-26T16:03:00.946Z,1006.09
2023-03-26T16:08:08.103Z,1005.91
2023-03-26T16:13:15.686Z,1005.84
2023-03-26T16:18:23.480Z,1006.14
2023-03-26T16:23:30.917Z,1006.07
2023-03-26T16:28:38.532Z,1006.67
2023-03-26T16:33:46.628Z,1006.51
2023-03-26T16:38:54.243Z,1006.42
2023-03-26T16:44:01.910Z,1006.56
2023-03-26T16:49:09.471Z,1006.57
2023-03-26T16:54:17.189Z,1006.73
2023-03-26T16:59:24.933Z,1006.68
2023-03-26T17:04:32.523Z,1006.51
2023-03-26T17:09:40.128Z,1006.50
2023-03-26T17:14:47.786Z,1006.66
2023-03-26T17:19:55.495Z,1007.50
2023-03-26T17:25:03.603Z,1008.10
2023-03-26T17:30:11.135Z,1008.36
2023-03-26T17:35:18.830Z,1008.24
2023-03-26T17:40:26.641Z,1008.15
2023-03-26T17:45:34.400Z,1008.00
2023-03-26T17:50:41.973Z,1007.63
2023-03-26T17:55:51.206Z,1007.32
2023-03-26T18:00:57.642Z,1007.20
2023-03-26T18:06:05.027Z,1007.03
2023-03-26T18:11:12.735Z,1007.17
2023-03-26T18:16:20.520Z,1007.08
2023-03-26T18:21:28.251Z,1007.02
2023-03-26T18:26:36.406Z,1007.30
2023-03-26T18:31:43.892Z,1007.28
2023-03-26T18:36:51.428Z,1007.35
2023-03-26T18:41:59.049Z,1007.30
2023-03-26T18:47:06.986Z,1007.04
2023-03-26T18:52:14.674Z,1007.11
2023-03-26T18:57:22.442Z,1006.92
2023-03-26T19:02:30.400Z,1006.79
2023-03-26T19:07:37.687Z,1006.88
2023-03-26T19:12:45.236Z,1006.83
2023-03-26T19:17:53.094Z,1006.91
2023-03-26T19:23:00.673Z,1006.79
2023-03-26T19:28:08.006Z,1006.77
2023-03-26T19:33:15.398Z,1006.75
2023-03-26T19:38:22.892Z,1006.72
2023-03-26T19:43:30.614Z,1006.92
2023-03-26T19:48:46.353Z,1006.85
2023-03-26T19:53:46.057Z,1006.70
2023-03-26T19:58:55.477Z,1006.63
2023-03-26T20:04:03.510Z,1006.47
2023-03-26T20:09:11.195Z,1006.44
2023-03-26T20:14:18.763Z,1006.40
2023-03-26T20:19:26.504Z,1006.35
2023-03-26T20:24:34.105Z,1006.19
2023-03-26T20:29:41.456Z,1006.14
2023-03-26T20:34:50.068Z,1006.13
2023-03-26T20:39:57.344Z,1006.17
2023-03-26T20:45:04.626Z,1006.20
2023-03-26T20:50:12.359Z,1006.07
2023-03-26T20:55:19.469Z,1006.20
2023-03-26T21:00:27.104Z,1006.06
2023-03-26T21:05:35.213Z,1006.16
2023-03-26T21:10:42.376Z,1006.22
2023-03-26T21:15:49.616Z,1006.24
2023-03-26T21:20:58.644Z,1006.31
2023-03-26T21:26:04.429Z,1006.40
2023-03-26T21:31:11.710Z,1006.34
2023-03-26T21:36:19.069Z,1006.25
2023-03-26T21:41:26.218Z,1006.27
2023-03-26T21:46:33.463Z,1006.36
2023-03-26T21:51:40.754Z,1006.33
2023-03-26T21:56:47.917Z,1006.25
2023-03-26T22:01:55.093Z,1006.41
2023-03-26T22:07:02.352Z,1006.52
2023-03-26T22:12:09.546Z,1006.72
2023-03-26T22:17:16.786Z,1006.82
2023-03-26T22:22:24.053Z,1006.86
2023-03-26T22:27:31.229Z,1007.03
2023-03-26T22:32:38.830Z,1006.97
2023-03-26T22:38:01.506Z,1007.03
2023-03-26T22:43:09.471Z,1007.07
2023-03-26T22:48:21.897Z,1007.09
2023-03-26T22:54:04.521Z,1007.06
2023-03-26T22:59:03.285Z,1007.03
2023-03-26T23:04:45.507Z,1007.14
2023-03-26T23:09:57.274Z,1007.25
2023-03-26T23:15:12.349Z,1007.24
2023-03-26T23:21:11.964Z,1007.22
2023-03-26T23:25:42.601Z,1007.21
2023-03-26T23:30:53.607Z,1007.12
2023-03-26T23:36:07.701Z,1007.30
2023-03-26T23:41:15.619Z,1007.32
2023-03-26T23:46:36.587Z,1007.35
2023-03-26T23:51:44.584Z,1007.46
2023-03-26T23:57:45.684Z,1007.50
